createdAt,value
2018-10-21T00:02:31.534Z,84.80
2018-10-21T00:05:04.073Z,84.80
2018-10-21T00:07:35.814Z,84.90
2018-10-21T00:10:09.794Z,84.40
2018-10-21T00:12:41.653Z,84.90
2018-10-21T00:15:13.334Z,84.70
2018-10-21T00:17:45.262Z,84.60
2018-10-21T00:20:17.134Z,84.40
2018-10-21T00:22:49.392Z,84.90
2018-10-21T00:25:22.213Z,84.40
2018-10-21T00:27:53.974Z,84.50
2018-10-21T00:30:26.773Z,84.30
2018-10-21T00:33:00.208Z,84.00
2018-10-21T00:35:31.534Z,84.80
2018-10-21T00:38:04.473Z,84.30
2018-10-21T00:40:36.574Z,84.30
2018-10-21T00:43:08.714Z,84.20
2018-10-21T00:45:40.176Z,84.50
2018-10-21T00:48:11.653Z,84.20
2018-10-21T00:50:44.174Z,84.40
2018-10-21T00:53:16.894Z,84.60
2018-10-21T00:55:48.514Z,84.80
2018-10-21T00:58:21.134Z,84.90
2018-10-21T01:00:53.896Z,84.90
2018-10-21T01:03:26.233Z,85.10
2018-10-21T01:05:58.893Z,85.10
2018-10-21T01:08:31.333Z,85.10
2018-10-21T01:11:02.894Z,84.90
2018-10-21T01:13:34.894Z,84.80
2018-10-21T01:16:06.554Z,84.80
2018-10-21T01:18:38.856Z,85.00
2018-10-21T01:21:11.271Z,85.00
2018-10-21T01:23:43.393Z,84.70
2018-10-21T01:26:15.114Z,84.60
2018-10-21T01:28:46.733Z,84.90
2018-10-21T01:31:18.753Z,84.60
2018-10-21T01:33:49.794Z,84.40
2018-10-21T01:36:23.056Z,84.40
2018-10-21T01:38:55.067Z,84.60
2018-10-21T01:41:27.053Z,84.70
2018-10-21T01:43:59.082Z,84.60
2018-10-21T01:46:31.193Z,84.60
2018-10-21T01:49:03.694Z,84.50
2018-10-21T01:51:35.693Z,84.50
2018-10-21T01:54:08.134Z,84.50
2018-10-21T01:56:40.313Z,84.40
2018-10-21T01:59:12.154Z,84.50
2018-10-21T02:01:44.654Z,84.50
2018-10-21T02:04:18.054Z,84.70
2018-10-21T02:06:49.393Z,84.80
2018-10-21T02:09:21.939Z,84.90
2018-10-21T02:11:53.313Z,84.70
2018-10-21T02:14:25.234Z,85.00
2018-10-21T02:16:56.674Z,85.10
2018-10-21T02:19:29.239Z,85.30
2018-10-21T02:22:01.013Z,85.30
2018-10-21T02:24:33.434Z,85.60
2018-10-21T02:27:05.356Z,85.70
2018-10-21T02:29:37.253Z,85.70
2018-10-21T02:32:09.095Z,85.90
2018-10-21T02:34:41.334Z,85.70
2018-10-21T02:37:13.014Z,85.90
2018-10-21T02:39:45.295Z,86.00
2018-10-21T02:42:17.044Z,85.90
2018-10-21T02:44:49.394Z,85.80
2018-10-21T02:47:21.295Z,85.90
2018-10-21T02:49:54.474Z,86.00
2018-10-21T02:52:26.774Z,86.00
2018-10-21T02:54:59.033Z,85.90
2018-10-21T02:57:31.034Z,85.80
2018-10-21T03:00:02.574Z,85.80
2018-10-21T03:02:34.813Z,85.90
2018-10-21T03:05:07.616Z,85.90
2018-10-21T03:07:39.213Z,86.10
2018-10-21T03:10:11.754Z,86.20
2018-10-21T03:12:43.834Z,85.60
2018-10-21T03:15:15.724Z,85.10
2018-10-21T03:17:47.254Z,84.70
2018-10-21T03:20:19.455Z,84.50
2018-10-21T03:22:50.434Z,84.50
2018-10-21T03:25:22.394Z,84.20
2018-10-21T03:27:54.414Z,84.10
2018-10-21T03:30:26.735Z,84.00
2018-10-21T03:32:58.431Z,83.90
2018-10-21T03:35:30.416Z,83.90
2018-10-21T03:38:02.775Z,84.00
2018-10-21T03:40:35.614Z,84.10
2018-10-21T03:43:06.994Z,84.10
2018-10-21T03:45:39.255Z,83.70
2018-10-21T03:48:10.337Z,83.70
2018-10-21T03:50:42.574Z,83.40
2018-10-21T03:53:14.717Z,83.20
2018-10-21T03:55:47.214Z,83.40
2018-10-21T03:58:19.036Z,83.40
2018-10-21T04:00:51.095Z,83.40
2018-10-21T04:03:22.894Z,83.00
2018-10-21T04:05:55.355Z,83.00
2018-10-21T04:08:26.694Z,83.00
2018-10-21T04:10:58.713Z,83.10
2018-10-21T04:13:30.056Z,83.20
2018-10-21T04:16:01.913Z,83.40
2018-10-21T04:18:33.693Z,83.80
2018-10-21T04:21:05.794Z,84.10
2018-10-21T04:23:38.595Z,84.30
2018-10-21T04:26:09.976Z,84.50
2018-10-21T04:28:41.974Z,84.60
2018-10-21T04:31:14.396Z,84.80
2018-10-21T04:33:47.054Z,84.90
2018-10-21T04:36:22.213Z,85.40
2018-10-21T04:40:04.228Z,85.70
2018-10-21T04:42:36.574Z,85.60
2018-10-21T04:45:09.433Z,85.30
2018-10-21T04:47:41.255Z,85.60
2018-10-21T04:50:14.314Z,85.30
2018-10-21T04:52:47.074Z,85.00
2018-10-21T04:55:18.234Z,84.90
2018-10-21T04:57:49.755Z,84.10
2018-10-21T05:00:22.075Z,84.30
2018-10-21T05:02:54.374Z,84.20
2018-10-21T05:05:25.634Z,84.20
2018-10-21T05:07:57.155Z,83.90
2018-10-21T05:10:32.633Z,83.30
2018-10-21T05:13:05.435Z,83.30
2018-10-21T05:15:38.595Z,83.40
2018-10-21T05:18:11.574Z,83.30
2018-10-21T05:20:43.753Z,83.30
2018-10-21T05:23:16.034Z,83.20
2018-10-21T05:25:48.273Z,83.30
2018-10-21T05:28:20.257Z,83.30
2018-10-21T05:30:53.054Z,83.00
2018-10-21T05:33:25.474Z,83.00
2018-10-21T05:35:56.913Z,83.40
2018-10-21T05:38:29.476Z,83.70
2018-10-21T05:41:01.654Z,83.70
2018-10-21T05:43:33.595Z,83.70
2018-10-21T05:46:06.388Z,84.30
2018-10-21T05:48:37.814Z,84.30
2018-10-21T05:51:10.058Z,84.70
2018-10-21T05:53:41.314Z,85.10
2018-10-21T05:56:13.574Z,85.50
2018-10-21T05:58:44.934Z,85.60
2018-10-21T06:01:17.174Z,85.60
2018-10-21T06:03:48.654Z,85.10
2018-10-21T06:06:20.254Z,85.00
2018-10-21T06:08:51.695Z,85.30
2018-10-21T06:11:23.234Z,85.50
2018-10-21T06:13:55.034Z,85.70
2018-10-21T06:16:26.436Z,85.80
2018-10-21T06:19:02.236Z,85.90
2018-10-21T06:21:35.494Z,85.90
2018-10-21T06:24:06.595Z,85.70
2018-10-21T06:26:38.836Z,85.50
2018-10-21T06:29:10.554Z,85.70
2018-10-21T06:31:43.234Z,85.60
2018-10-21T06:34:15.195Z,85.80
2018-10-21T06:36:47.639Z,85.50
2018-10-21T06:39:19.835Z,85.90
2018-10-21T06:41:52.095Z,86.00
2018-10-21T06:44:23.296Z,85.60
2018-10-21T06:46:54.854Z,85.80
2018-10-21T06:49:27.043Z,85.70
2018-10-21T06:51:58.234Z,84.80
2018-10-21T06:54:30.535Z,84.90
2018-10-21T06:57:02.405Z,84.50
2018-10-21T06:59:34.974Z,85.50
2018-10-21T07:02:06.735Z,85.60
2018-10-21T07:04:38.486Z,85.00
2018-10-21T07:07:10.735Z,85.00
2018-10-21T07:09:42.915Z,84.80
2018-10-21T07:12:15.634Z,84.80
2018-10-21T07:14:47.254Z,84.90
2018-10-21T07:17:20.176Z,85.10
2018-10-21T07:19:52.215Z,85.30
2018-10-21T07:22:23.835Z,85.10
2018-10-21T07:24:55.200Z,85.00
2018-10-21T07:27:26.355Z,85.30
2018-10-21T07:29:58.014Z,85.20
2018-10-21T07:32:29.815Z,85.10
2018-10-21T07:35:01.197Z,85.40
2018-10-21T07:37:34.236Z,85.40
2018-10-21T07:40:05.967Z,85.30
2018-10-21T07:42:37.834Z,85.40
2018-10-21T07:45:10.755Z,85.40
2018-10-21T07:47:42.555Z,85.30
2018-10-21T07:50:14.934Z,85.00
2018-10-21T07:52:46.554Z,85.20
2018-10-21T07:55:19.567Z,84.90
2018-10-21T07:57:51.914Z,84.70
2018-10-21T08:00:23.636Z,84.80
2018-10-21T08:02:55.355Z,84.30
2018-10-21T08:05:37.314Z,84.00
2018-10-21T08:08:15.477Z,84.10
2018-10-21T08:10:48.016Z,83.80
2018-10-21T08:13:21.617Z,83.70
2018-10-21T08:15:53.239Z,84.00
2018-10-21T08:18:25.814Z,83.60
2018-10-21T08:20:57.234Z,83.60
2018-10-21T08:23:30.076Z,83.60
2018-10-21T08:26:01.595Z,83.80
2018-10-21T08:28:33.336Z,84.00
2018-10-21T08:31:04.934Z,84.00
2018-10-21T08:33:36.574Z,85.00
2018-10-21T08:36:08.584Z,84.20
2018-10-21T08:38:41.175Z,84.00
2018-10-21T08:41:13.654Z,84.10
2018-10-21T08:43:45.734Z,84.20
2018-10-21T08:46:18.635Z,84.20
2018-10-21T08:48:50.640Z,83.80
2018-10-21T08:51:21.914Z,83.70
2018-10-21T08:53:53.755Z,83.80
2018-10-21T08:56:26.016Z,83.60
2018-10-21T08:58:58.094Z,83.50
2018-10-21T09:01:29.934Z,83.50
2018-10-21T09:04:01.901Z,83.40
2018-10-21T09:06:33.633Z,83.40
2018-10-21T09:09:06.234Z,83.40
2018-10-21T09:11:38.453Z,83.20
2018-10-21T09:14:10.714Z,83.10
2018-10-21T09:16:42.578Z,82.70
2018-10-21T09:19:14.543Z,82.70
2018-10-21T09:21:47.299Z,82.80
2018-10-21T09:24:19.374Z,82.90
2018-10-21T09:26:51.454Z,82.70
2018-10-21T09:29:24.434Z,82.50
2018-10-21T09:31:56.314Z,82.60
2018-10-21T09:34:28.157Z,83.00
2018-10-21T09:37:00.380Z,82.60
2018-10-21T09:39:32.314Z,83.20
2018-10-21T09:42:05.124Z,82.30
2018-10-21T09:44:36.896Z,82.30
2018-10-21T09:47:09.698Z,82.10
2018-10-21T09:49:42.240Z,81.50
2018-10-21T09:52:14.664Z,81.40
2018-10-21T09:54:46.314Z,81.70
2018-10-21T09:57:19.214Z,81.40
2018-10-21T09:59:50.695Z,81.40
2018-10-21T10:02:27.695Z,81.50
2018-10-21T10:04:59.263Z,81.70
2018-10-21T10:07:31.815Z,81.50
2018-10-21T10:10:03.691Z,81.60
2018-10-21T10:12:35.734Z,81.30
2018-10-21T10:15:08.374Z,80.90
2018-10-21T10:17:40.620Z,81.10
2018-10-21T10:20:12.954Z,80.90
2018-10-21T10:22:44.735Z,80.40
2018-10-21T10:25:17.857Z,80.00
2018-10-21T10:27:49.095Z,80.20
2018-10-21T10:30:22.016Z,80.20
2018-10-21T10:32:54.113Z,80.00
2018-10-21T10:35:26.554Z,80.20
2018-10-21T10:38:00.306Z,80.20
2018-10-21T10:40:33.074Z,80.10
2018-10-21T10:43:05.349Z,80.10
2018-10-21T10:45:37.097Z,79.70
2018-10-21T10:48:09.015Z,79.20
2018-10-21T10:50:40.633Z,79.50
2018-10-21T10:53:13.434Z,79.80
2018-10-21T10:55:48.032Z,79.50
2018-10-21T10:58:20.533Z,79.30
2018-10-21T11:00:54.605Z,79.10
2018-10-21T11:03:26.098Z,79.20
2018-10-21T11:05:58.913Z,79.20
2018-10-21T11:08:31.353Z,79.00
2018-10-21T11:11:02.895Z,78.50
2018-10-21T11:13:35.514Z,78.50
2018-10-21T11:16:09.347Z,78.80
2018-10-21T11:18:41.694Z,78.30
2018-10-21T11:21:13.714Z,78.00
2018-10-21T11:23:45.795Z,78.30
2018-10-21T11:26:17.753Z,78.10
2018-10-21T11:28:49.274Z,77.80
2018-10-21T11:31:21.135Z,77.20
2018-10-21T11:33:53.273Z,76.60
2018-10-21T11:36:25.755Z,76.40
2018-10-21T11:38:57.574Z,75.70
2018-10-21T11:41:28.613Z,75.00
2018-10-21T11:44:01.334Z,75.10
2018-10-21T11:46:33.619Z,74.30
2018-10-21T11:49:06.092Z,74.20
2018-10-21T11:51:38.776Z,74.00
2018-10-21T11:54:10.375Z,73.90
2018-10-21T11:56:43.454Z,73.90
2018-10-21T11:59:15.499Z,73.80
2018-10-21T12:01:47.054Z,73.70
2018-10-21T12:04:19.875Z,73.90
2018-10-21T12:06:51.895Z,73.90
2018-10-21T12:09:24.174Z,73.90
2018-10-21T12:11:56.154Z,74.10
2018-10-21T12:14:28.355Z,74.40
2018-10-21T12:17:00.814Z,74.70
2018-10-21T12:19:32.614Z,75.10
2018-10-21T12:22:04.685Z,74.90
2018-10-21T12:24:36.514Z,74.90
2018-10-21T12:27:09.073Z,74.90
2018-10-21T12:29:41.573Z,74.90
2018-10-21T12:32:14.133Z,75.20
2018-10-21T12:34:46.374Z,75.40
2018-10-21T12:37:18.114Z,75.10
2018-10-21T12:39:49.633Z,75.10
2018-10-21T12:42:21.875Z,75.00
2018-10-21T12:44:53.473Z,75.20
2018-10-21T12:47:25.836Z,76.00
2018-10-21T12:49:58.873Z,75.30
2018-10-21T12:52:31.333Z,75.10
2018-10-21T12:55:03.304Z,75.00
2018-10-21T12:57:36.675Z,75.20
2018-10-21T13:00:08.595Z,75.40
2018-10-21T13:02:41.137Z,75.50
2018-10-21T13:05:13.014Z,75.20
2018-10-21T13:07:44.754Z,75.20
2018-10-21T13:10:17.467Z,74.70
2018-10-21T13:12:49.527Z,74.70
2018-10-21T13:15:21.653Z,74.50
2018-10-21T13:17:54.434Z,74.30
2018-10-21T13:20:26.195Z,74.30
2018-10-21T13:22:59.114Z,74.60
2018-10-21T13:25:31.895Z,74.10
2018-10-21T13:28:03.687Z,74.20
2018-10-21T13:30:36.173Z,73.50
2018-10-21T13:33:07.774Z,73.80
2018-10-21T13:35:39.600Z,73.80
2018-10-21T13:38:11.676Z,73.80
2018-10-21T13:40:43.795Z,74.30
2018-10-21T13:43:15.038Z,73.40
2018-10-21T13:45:47.411Z,73.40
2018-10-21T13:48:19.213Z,72.80
2018-10-21T13:50:50.974Z,72.70
2018-10-21T13:53:23.032Z,72.20
2018-10-21T13:55:54.895Z,73.10
2018-10-21T13:58:27.395Z,72.00
2018-10-21T14:00:59.299Z,72.00
2018-10-21T14:03:31.994Z,72.00
2018-10-21T14:06:04.494Z,71.80
2018-10-21T14:08:36.655Z,71.90
2018-10-21T14:11:08.254Z,72.00
2018-10-21T14:13:40.335Z,71.50
2018-10-21T14:16:13.074Z,71.60
2018-10-21T14:18:45.286Z,71.60
2018-10-21T14:21:16.640Z,71.30
2018-10-21T14:23:49.174Z,71.00
2018-10-21T14:26:20.913Z,71.00
2018-10-21T14:28:52.974Z,71.40
2018-10-21T14:31:25.814Z,71.00
2018-10-21T14:33:57.857Z,70.90
2018-10-21T14:36:29.715Z,70.50
2018-10-21T14:39:01.355Z,70.60
2018-10-21T14:41:33.555Z,69.90
2018-10-21T14:44:04.954Z,69.70
2018-10-21T14:46:38.474Z,69.80
2018-10-21T14:49:11.595Z,69.40
2018-10-21T14:51:43.374Z,69.30
2018-10-21T14:54:15.603Z,68.70
2018-10-21T14:56:47.614Z,68.20
2018-10-21T14:59:19.194Z,68.30
2018-10-21T15:01:50.854Z,67.60
2018-10-21T15:04:23.194Z,67.10
2018-10-21T15:06:55.295Z,67.70
2018-10-21T15:09:26.911Z,66.70
2018-10-21T15:11:58.718Z,66.90
2018-10-21T15:14:31.180Z,67.20
2018-10-21T15:17:03.515Z,67.30
2018-10-21T15:19:35.473Z,67.30
2018-10-21T15:22:07.528Z,67.70
2018-10-21T15:24:39.517Z,66.80
2018-10-21T15:27:11.095Z,66.20
2018-10-21T15:29:43.894Z,62.80
2018-10-21T15:32:16.904Z,60.30
2018-10-21T15:34:49.374Z,60.10
2018-10-21T15:37:21.555Z,59.40
2018-10-21T15:39:53.856Z,58.80
2018-10-21T15:42:25.300Z,58.70
2018-10-21T15:44:57.578Z,58.60
2018-10-21T15:47:29.635Z,57.90
2018-10-21T15:50:01.842Z,58.20
2018-10-21T15:52:34.915Z,58.10
2018-10-21T15:55:06.573Z,57.30
2018-10-21T15:57:38.434Z,58.40
2018-10-21T16:00:12.256Z,61.30
2018-10-21T16:02:44.470Z,59.20
2018-10-21T16:05:17.355Z,61.50
2018-10-21T16:07:49.154Z,61.80
2018-10-21T16:10:20.795Z,63.80
2018-10-21T16:12:53.014Z,64.90
2018-10-21T16:15:24.616Z,61.30
2018-10-21T16:17:56.654Z,61.60
2018-10-21T16:20:28.941Z,61.80
2018-10-21T16:23:01.775Z,63.00
2018-10-21T16:25:34.195Z,64.90
2018-10-21T16:28:06.343Z,64.40
2018-10-21T16:30:38.755Z,64.30
2018-10-21T16:33:10.556Z,64.60
2018-10-21T16:35:42.475Z,65.40
2018-10-21T16:38:14.589Z,64.60
2018-10-21T16:40:47.053Z,64.10
2018-10-21T16:43:19.096Z,63.40
2018-10-21T16:45:50.734Z,63.80
2018-10-21T16:48:23.495Z,64.80
2018-10-21T16:50:54.877Z,65.00
2018-10-21T16:53:26.569Z,64.90
2018-10-21T16:55:58.274Z,65.20
2018-10-21T16:58:30.453Z,65.50
2018-10-21T17:01:01.953Z,65.30
2018-10-21T17:03:34.086Z,65.30
2018-10-21T17:06:05.914Z,65.00
2018-10-21T17:08:38.653Z,65.30
2018-10-21T17:11:10.784Z,65.30
2018-10-21T17:13:42.978Z,65.90
2018-10-21T17:16:15.446Z,66.30
2018-10-21T17:18:46.598Z,66.10
2018-10-21T17:21:18.494Z,65.90
2018-10-21T17:23:50.933Z,66.10
2018-10-21T17:26:26.036Z,66.00
2018-10-21T17:28:58.574Z,66.00
2018-10-21T17:31:30.519Z,66.10
2018-10-21T17:34:03.049Z,66.60
2018-10-21T17:36:34.514Z,66.90
2018-10-21T17:39:07.613Z,67.00
2018-10-21T17:41:38.856Z,67.30
2018-10-21T17:44:11.853Z,67.30
2018-10-21T17:46:44.191Z,67.00
2018-10-21T17:49:15.869Z,67.30
2018-10-21T17:51:47.613Z,67.40
2018-10-21T17:54:19.695Z,67.70
2018-10-21T17:56:55.534Z,67.80
2018-10-21T17:59:27.515Z,67.80
2018-10-21T18:02:00.234Z,67.70
2018-10-21T18:04:32.382Z,68.00
2018-10-21T18:07:04.138Z,67.80
2018-10-21T18:09:36.655Z,68.00
2018-10-21T18:12:08.273Z,68.00
2018-10-21T18:14:40.619Z,67.60
2018-10-21T18:17:12.415Z,67.90
2018-10-21T18:19:45.014Z,68.30
2018-10-21T18:22:17.093Z,68.20
2018-10-21T18:24:48.834Z,68.30
2018-10-21T18:27:21.253Z,68.90
2018-10-21T18:29:54.395Z,69.00
2018-10-21T18:32:26.598Z,69.00
2018-10-21T18:34:58.913Z,68.90
2018-10-21T18:37:31.434Z,68.90
2018-10-21T18:40:04.062Z,68.80
2018-10-21T18:42:35.705Z,69.60
2018-10-21T18:45:09.474Z,69.00
2018-10-21T18:47:41.817Z,69.00
2018-10-21T18:50:14.233Z,69.10
2018-10-21T18:52:46.796Z,68.90
2018-10-21T18:55:18.168Z,68.80
2018-10-21T18:57:50.516Z,68.90
2018-10-21T19:00:23.133Z,69.30
2018-10-21T19:02:54.914Z,69.40
2018-10-21T19:05:26.274Z,69.50
2018-10-21T19:07:58.014Z,69.80
2018-10-21T19:10:30.637Z,69.90
2018-10-21T19:13:02.567Z,70.20
2018-10-21T19:15:35.153Z,70.20
2018-10-21T19:18:07.334Z,70.30
2018-10-21T19:20:39.074Z,70.40
2018-10-21T19:23:12.034Z,70.30
2018-10-21T19:25:44.054Z,70.60
2018-10-21T19:28:16.345Z,70.70
2018-10-21T19:30:48.674Z,70.50
2018-10-21T19:33:20.373Z,70.20
2018-10-21T19:35:51.795Z,70.20
2018-10-21T19:38:24.154Z,70.20
2018-10-21T19:40:56.495Z,70.20
2018-10-21T19:43:29.483Z,70.30
2018-10-21T19:46:01.351Z,70.40
2018-10-21T19:48:33.735Z,70.30
2018-10-21T19:51:06.254Z,70.30
2018-10-21T19:53:38.713Z,70.10
2018-10-21T19:56:10.936Z,70.10
2018-10-21T19:58:43.226Z,70.20
2018-10-21T20:01:14.661Z,70.10
2018-10-21T20:03:46.574Z,70.00
2018-10-21T20:06:18.554Z,70.00
2018-10-21T20:08:50.514Z,69.80
2018-10-21T20:11:22.075Z,69.80
2018-10-21T20:13:54.713Z,69.80
2018-10-21T20:16:26.474Z,69.90
2018-10-21T20:18:58.834Z,70.10
2018-10-21T20:21:30.333Z,70.20
2018-10-21T20:24:03.034Z,70.50
2018-10-21T20:26:35.254Z,70.70
2018-10-21T20:29:07.702Z,71.10
2018-10-21T20:31:39.354Z,71.20
2018-10-21T20:34:11.277Z,71.00
2018-10-21T20:36:42.714Z,71.20
2018-10-21T20:39:14.154Z,71.40
2018-10-21T20:41:45.255Z,71.50
2018-10-21T20:44:17.474Z,71.40
2018-10-21T20:46:49.814Z,71.40
2018-10-21T20:49:22.346Z,71.40
2018-10-21T20:51:54.335Z,71.50
2018-10-21T20:54:29.954Z,71.70
2018-10-21T20:57:05.574Z,71.60
2018-10-21T20:59:38.134Z,71.70
2018-10-21T21:02:11.514Z,71.70
2018-10-21T21:04:43.674Z,71.60
2018-10-21T21:07:15.374Z,71.70
2018-10-21T21:09:48.533Z,71.70
2018-10-21T21:12:20.195Z,71.80
2018-10-21T21:14:52.574Z,71.60
2018-10-21T21:17:22.395Z,71.70
2018-10-21T21:19:54.394Z,71.60
2018-10-21T21:22:26.594Z,71.70
2018-10-21T21:24:59.554Z,71.80
2018-10-21T21:27:31.013Z,71.80
2018-10-21T21:30:03.601Z,71.90
2018-10-21T21:32:36.314Z,71.90
2018-10-21T21:35:08.718Z,72.00
2018-10-21T21:37:40.654Z,72.00
2018-10-21T21:40:12.374Z,72.00
2018-10-21T21:42:44.534Z,72.10
2018-10-21T21:45:16.495Z,72.20
2018-10-21T21:47:48.434Z,72.10
2018-10-21T21:50:20.477Z,72.20
2018-10-21T21:52:52.954Z,72.30
2018-10-21T21:55:25.459Z,72.20
2018-10-21T21:57:57.736Z,72.20
2018-10-21T22:00:29.942Z,72.20
2018-10-21T22:03:01.984Z,72.10
2018-10-21T22:05:33.444Z,72.20
2018-10-21T22:08:04.246Z,72.10
2018-10-21T22:10:35.988Z,72.20
2018-10-21T22:13:07.848Z,72.30
2018-10-21T22:15:40.149Z,72.30
2018-10-21T22:18:12.245Z,72.40
2018-10-21T22:20:44.532Z,72.50
2018-10-21T22:23:16.135Z,72.50
2018-10-21T22:25:48.885Z,72.70
2018-10-21T22:28:20.258Z,72.80
2018-10-21T22:30:51.839Z,73.60
2018-10-21T22:33:23.539Z,73.10
2018-10-21T22:35:55.913Z,73.10
2018-10-21T22:38:26.981Z,73.10
2018-10-21T22:40:59.586Z,73.20
2018-10-21T22:43:31.665Z,73.40
2018-10-21T22:46:04.463Z,73.50
2018-10-21T22:48:36.447Z,73.50
2018-10-21T22:51:08.988Z,73.60
2018-10-21T22:53:40.968Z,73.60
2018-10-21T22:56:13.796Z,73.70
2018-10-21T22:58:45.669Z,73.70
2018-10-21T23:01:18.131Z,73.60
2018-10-21T23:03:50.150Z,73.60
2018-10-21T23:06:21.929Z,73.60
2018-10-21T23:08:54.586Z,73.50
2018-10-21T23:11:26.320Z,73.60
2018-10-21T23:13:57.942Z,73.80
2018-10-21T23:16:30.280Z,73.80
2018-10-21T23:19:11.519Z,73.80
2018-10-21T23:21:43.539Z,73.80
2018-10-21T23:24:15.197Z,74.00
2018-10-21T23:26:47.320Z,74.20
2018-10-21T23:29:19.457Z,74.10
2018-10-21T23:31:51.358Z,74.20
2018-10-21T23:34:23.199Z,74.20
2018-10-21T23:36:54.777Z,74.00
2018-10-21T23:39:26.919Z,73.90
2018-10-21T23:41:59.203Z,74.00
2018-10-21T23:44:31.858Z,74.10
2018-10-21T23:47:03.917Z,73.90
2018-10-21T23:49:35.363Z,73.70
2018-10-21T23:52:07.921Z,73.90
2018-10-21T23:54:40.116Z,74.10
2018-10-21T23:57:12.316Z,74.20
2018-10-21T23:59:44.236Z,74.40
